sensor_id;sensor_type;location;lat;lon;timestamp;temperature;humidity
5466;DHT22;2755;50.728;7.108;2022-09-13T00:00:48;16.50;99.90
5466;DHT22;2755;50.728;7.108;2022-09-13T00:05:39;16.60;99.90
5466;DHT22;2755;50.728;7.108;2022-09-13T00:08:06;16.00;99.90
5466;DHT22;2755;50.728;7.108;2022-09-13T00:10:33;15.90;99.90
5466;DHT22;2755;50.728;7.108;2022-09-13T00:13:00;16.30;99.90
5466;DHT22;2755;50.728;7.108;2022-09-13T00:15:26;16.30;99.90
5466;DHT22;2755;50.728;7.108;2022-09-13T00:17:52;16.00;99.90
5466;DHT22;2755;50.728;7.108;2022-09-13T00:20:17;15.90;99.90
5466;DHT22;2755;50.728;7.108;2022-09-13T00:22:43;16.80;99.90
5466;DHT22;2755;50.728;7.108;2022-09-13T00:25:09;16.20;99.90
5466;DHT22;2755;50.728;7.108;2022-09-13T00:27:35;16.10;99.90
5466;DHT22;2755;50.728;7.108;2022-09-13T00:30:02;16.30;99.90
5466;DHT22;2755;50.728;7.108;2022-09-13T00:32:28;16.30;99.90
5466;DHT22;2755;50.728;7.108;2022-09-13T00:34:53;16.10;99.90
5466;DHT22;2755;50.728;7.108;2022-09-13T00:39:45;16.30;99.90
5466;DHT22;2755;50.728;7.108;2022-09-13T00:42:12;16.40;99.90
5466;DHT22;2755;50.728;7.108;2022-09-13T00:44:53;16.30;99.90
5466;DHT22;2755;50.728;7.108;2022-09-13T00:47:44;16.30;99.90
5466;DHT22;2755;50.728;7.108;2022-09-13T00:50:39;16.30;99.90
5466;DHT22;2755;50.728;7.108;2022-09-13T00:53:13;16.30;99.90
5466;DHT22;2755;50.728;7.108;2022-09-13T00:58:30;16.50;99.90
5466;DHT22;2755;50.728;7.108;2022-09-13T01:00:57;16.20;99.90
5466;DHT22;2755;50.728;7.108;2022-09-13T01:03:27;16.10;99.90
5466;DHT22;2755;50.728;7.108;2022-09-13T01:05:59;16.30;99.90
5466;DHT22;2755;50.728;7.108;2022-09-13T01:08:28;15.80;99.90
5466;DHT22;2755;50.728;7.108;2022-09-13T01:10:56;16.20;99.90
5466;DHT22;2755;50.728;7.108;2022-09-13T01:13:27;16.50;99.90
5466;DHT22;2755;50.728;7.108;2022-09-13T01:15:56;16.80;99.90
5466;DHT22;2755;50.728;7.108;2022-09-13T01:18:22;16.20;99.90
5466;DHT22;2755;50.728;7.108;2022-09-13T01:24:42;16.50;99.90
5466;DHT22;2755;50.728;7.108;2022-09-13T01:27:19;16.70;99.90
5466;DHT22;2755;50.728;7.108;2022-09-13T01:30:16;16.30;99.90
5466;DHT22;2755;50.728;7.108;2022-09-13T01:35:22;15.80;99.90
5466;DHT22;2755;50.728;7.108;2022-09-13T01:38:05;16.30;99.90
5466;DHT22;2755;50.728;7.108;2022-09-13T01:40:53;16.50;99.90
5466;DHT22;2755;50.728;7.108;2022-09-13T01:46:31;16.40;99.90
5466;DHT22;2755;50.728;7.108;2022-09-13T01:49:29;16.40;99.90
5466;DHT22;2755;50.728;7.108;2022-09-13T01:52:06;16.50;99.90
5466;DHT22;2755;50.728;7.108;2022-09-13T01:54:37;16.50;99.90
5466;DHT22;2755;50.728;7.108;2022-09-13T01:57:28;16.10;99.90
5466;DHT22;2755;50.728;7.108;2022-09-13T02:00:06;16.40;99.90
5466;DHT22;2755;50.728;7.108;2022-09-13T02:02:42;16.60;99.90
5466;DHT22;2755;50.728;7.108;2022-09-13T02:05:57;16.40;99.90
5466;DHT22;2755;50.728;7.108;2022-09-13T02:08:09;16.80;99.90
5466;DHT22;2755;50.728;7.108;2022-09-13T02:10:45;16.50;99.90
5466;DHT22;2755;50.728;7.108;2022-09-13T02:13:24;16.80;99.90
5466;DHT22;2755;50.728;7.108;2022-09-13T02:15:55;16.50;99.90
5466;DHT22;2755;50.728;7.108;2022-09-13T02:18:27;16.60;99.90
5466;DHT22;2755;50.728;7.108;2022-09-13T02:20:59;16.50;99.90
5466;DHT22;2755;50.728;7.108;2022-09-13T02:23:32;16.40;99.90
5466;DHT22;2755;50.728;7.108;2022-09-13T02:26:00;16.30;99.90
5466;DHT22;2755;50.728;7.108;2022-09-13T02:28:34;16.40;99.90
5466;DHT22;2755;50.728;7.108;2022-09-13T02:31:03;16.30;99.90
5466;DHT22;2755;50.728;7.108;2022-09-13T02:33:43;16.20;99.90
5466;DHT22;2755;50.728;7.108;2022-09-13T02:36:18;16.60;99.90
5466;DHT22;2755;50.728;7.108;2022-09-13T02:41:24;16.10;99.90
5466;DHT22;2755;50.728;7.108;2022-09-13T02:52:41;16.10;99.90
5466;DHT22;2755;50.728;7.108;2022-09-13T02:55:41;16.50;99.90
5466;DHT22;2755;50.728;7.108;2022-09-13T03:00:35;16.40;99.90
5466;DHT22;2755;50.728;7.108;2022-09-13T03:03:04;16.30;99.90
5466;DHT22;2755;50.728;7.108;2022-09-13T03:05:30;16.50;99.90
5466;DHT22;2755;50.728;7.108;2022-09-13T03:07:56;16.40;99.90
5466;DHT22;2755;50.728;7.108;2022-09-13T03:10:23;16.10;99.90
5466;DHT22;2755;50.728;7.108;2022-09-13T03:13:00;16.30;99.90
5466;DHT22;2755;50.728;7.108;2022-09-13T03:15:32;16.60;99.90
5466;DHT22;2755;50.728;7.108;2022-09-13T03:21:34;16.30;99.90
5466;DHT22;2755;50.728;7.108;2022-09-13T03:35:06;16.30;99.90
5466;DHT22;2755;50.728;7.108;2022-09-13T03:37:46;17.30;99.90
5466;DHT22;2755;50.728;7.108;2022-09-13T03:45:53;16.50;99.90
5466;DHT22;2755;50.728;7.108;2022-09-13T03:48:20;16.30;99.90
5466;DHT22;2755;50.728;7.108;2022-09-13T03:50:47;16.30;99.90
5466;DHT22;2755;50.728;7.108;2022-09-13T03:53:18;15.90;99.90
5466;DHT22;2755;50.728;7.108;2022-09-13T03:55:45;16.30;99.90
5466;DHT22;2755;50.728;7.108;2022-09-13T03:58:13;16.40;99.90
5466;DHT22;2755;50.728;7.108;2022-09-13T04:03:06;16.20;99.90
5466;DHT22;2755;50.728;7.108;2022-09-13T04:05:32;16.40;99.90
5466;DHT22;2755;50.728;7.108;2022-09-13T04:07:59;15.90;99.90
5466;DHT22;2755;50.728;7.108;2022-09-13T04:10:26;16.30;99.90
5466;DHT22;2755;50.728;7.108;2022-09-13T04:12:53;16.40;99.90
5466;DHT22;2755;50.728;7.108;2022-09-13T04:15:19;16.40;99.90
5466;DHT22;2755;50.728;7.108;2022-09-13T04:17:46;16.50;99.90
5466;DHT22;2755;50.728;7.108;2022-09-13T04:20:12;16.40;99.90
5466;DHT22;2755;50.728;7.108;2022-09-13T04:22:38;16.50;99.90
5466;DHT22;2755;50.728;7.108;2022-09-13T04:25:04;16.40;99.90
5466;DHT22;2755;50.728;7.108;2022-09-13T04:27:30;16.60;99.90
5466;DHT22;2755;50.728;7.108;2022-09-13T04:29:56;15.50;99.90
5466;DHT22;2755;50.728;7.108;2022-09-13T04:32:22;16.20;99.90
5466;DHT22;2755;50.728;7.108;2022-09-13T04:34:47;16.50;99.90
5466;DHT22;2755;50.728;7.108;2022-09-13T04:37:13;16.40;99.90
5466;DHT22;2755;50.728;7.108;2022-09-13T04:39:38;16.30;99.90
5466;DHT22;2755;50.728;7.108;2022-09-13T04:42:05;16.30;99.90
5466;DHT22;2755;50.728;7.108;2022-09-13T04:49:24;16.20;99.90
5466;DHT22;2755;50.728;7.108;2022-09-13T04:51:50;16.90;99.90
5466;DHT22;2755;50.728;7.108;2022-09-13T04:54:16;16.20;99.90
5466;DHT22;2755;50.728;7.108;2022-09-13T04:56:45;16.20;99.90
5466;DHT22;2755;50.728;7.108;2022-09-13T04:59:11;16.40;99.90
5466;DHT22;2755;50.728;7.108;2022-09-13T05:04:05;16.20;99.90
5466;DHT22;2755;50.728;7.108;2022-09-13T05:06:30;16.10;99.90
5466;DHT22;2755;50.728;7.108;2022-09-13T05:08:56;16.20;99.90
5466;DHT22;2755;50.728;7.108;2022-09-13T05:11:23;16.30;99.90
5466;DHT22;2755;50.728;7.108;2022-09-13T05:13:50;16.20;99.90
5466;DHT22;2755;50.728;7.108;2022-09-13T05:16:20;16.50;99.90
5466;DHT22;2755;50.728;7.108;2022-09-13T05:18:46;16.40;99.90
5466;DHT22;2755;50.728;7.108;2022-09-13T05:21:12;15.90;99.90
5466;DHT22;2755;50.728;7.108;2022-09-13T05:26:04;16.40;99.90
5466;DHT22;2755;50.728;7.108;2022-09-13T05:28:35;16.00;99.90
5466;DHT22;2755;50.728;7.108;2022-09-13T05:33:33;16.40;99.90
5466;DHT22;2755;50.728;7.108;2022-09-13T05:35:59;16.30;99.90
5466;DHT22;2755;50.728;7.108;2022-09-13T05:38:25;16.60;99.90
5466;DHT22;2755;50.728;7.108;2022-09-13T05:40:55;16.40;99.90
5466;DHT22;2755;50.728;7.108;2022-09-13T05:43:25;17.30;99.90
5466;DHT22;2755;50.728;7.108;2022-09-13T05:45:59;16.50;99.90
5466;DHT22;2755;50.728;7.108;2022-09-13T05:48:25;16.30;99.90
5466;DHT22;2755;50.728;7.108;2022-09-13T05:50:51;16.80;99.90
5466;DHT22;2755;50.728;7.108;2022-09-13T05:53:17;16.50;99.90
5466;DHT22;2755;50.728;7.108;2022-09-13T05:55:42;16.70;99.90
5466;DHT22;2755;50.728;7.108;2022-09-13T06:07:52;16.80;99.90
5466;DHT22;2755;50.728;7.108;2022-09-13T06:10:17;16.80;99.90
5466;DHT22;2755;50.728;7.108;2022-09-13T06:12:44;16.80;99.90
5466;DHT22;2755;50.728;7.108;2022-09-13T06:15:10;16.80;99.90
5466;DHT22;2755;50.728;7.108;2022-09-13T06:17:36;17.10;99.90
5466;DHT22;2755;50.728;7.108;2022-09-13T06:20:02;17.20;99.90
5466;DHT22;2755;50.728;7.108;2022-09-13T06:24:58;16.90;99.90
5466;DHT22;2755;50.728;7.108;2022-09-13T06:27:24;16.70;99.90
5466;DHT22;2755;50.728;7.108;2022-09-13T06:29:49;16.90;99.90
5466;DHT22;2755;50.728;7.108;2022-09-13T06:32:15;16.90;99.90
5466;DHT22;2755;50.728;7.108;2022-09-13T06:39:33;17.30;99.90
5466;DHT22;2755;50.728;7.108;2022-09-13T06:41:59;17.60;99.90
5466;DHT22;2755;50.728;7.108;2022-09-13T06:44:24;17.70;99.90
5466;DHT22;2755;50.728;7.108;2022-09-13T06:46:50;17.60;99.90
5466;DHT22;2755;50.728;7.108;2022-09-13T06:49:17;17.90;99.90
5466;DHT22;2755;50.728;7.108;2022-09-13T06:51:43;18.00;99.90
5466;DHT22;2755;50.728;7.108;2022-09-13T06:54:08;16.60;99.90
5466;DHT22;2755;50.728;7.108;2022-09-13T06:56:36;17.90;99.90
5466;DHT22;2755;50.728;7.108;2022-09-13T06:59:05;18.10;99.90
5466;DHT22;2755;50.728;7.108;2022-09-13T07:01:34;18.10;99.90
5466;DHT22;2755;50.728;7.108;2022-09-13T07:04:34;18.00;99.90
5466;DHT22;2755;50.728;7.108;2022-09-13T07:06:57;18.00;99.90
5466;DHT22;2755;50.728;7.108;2022-09-13T07:11:51;18.00;99.90
5466;DHT22;2755;50.728;7.108;2022-09-13T07:14:25;18.00;99.90
5466;DHT22;2755;50.728;7.108;2022-09-13T07:16:52;18.30;99.90
5466;DHT22;2755;50.728;7.108;2022-09-13T07:19:20;18.30;99.90
5466;DHT22;2755;50.728;7.108;2022-09-13T07:24:14;18.40;99.90
5466;DHT22;2755;50.728;7.108;2022-09-13T07:29:09;18.30;99.90
5466;DHT22;2755;50.728;7.108;2022-09-13T07:31:40;18.70;99.90
5466;DHT22;2755;50.728;7.108;2022-09-13T07:34:09;17.70;99.90
5466;DHT22;2755;50.728;7.108;2022-09-13T07:36:36;18.90;99.90
5466;DHT22;2755;50.728;7.108;2022-09-13T07:39:03;19.00;99.90
5466;DHT22;2755;50.728;7.108;2022-09-13T07:41:30;19.00;99.90
5466;DHT22;2755;50.728;7.108;2022-09-13T07:43:56;18.30;99.90
5466;DHT22;2755;50.728;7.108;2022-09-13T07:46:24;19.40;99.90
5466;DHT22;2755;50.728;7.108;2022-09-13T07:48:52;19.70;99.90
5466;DHT22;2755;50.728;7.108;2022-09-13T07:51:23;20.20;99.90
5466;DHT22;2755;50.728;7.108;2022-09-13T07:53:51;20.30;99.90
5466;DHT22;2755;50.728;7.108;2022-09-13T07:56:22;20.50;99.90
5466;DHT22;2755;50.728;7.108;2022-09-13T07:58:49;20.80;99.90
5466;DHT22;2755;50.728;7.108;2022-09-13T08:06:09;21.60;99.90
5466;DHT22;2755;50.728;7.108;2022-09-13T08:08:36;22.10;99.90
5466;DHT22;2755;50.728;7.108;2022-09-13T08:13:29;22.00;99.90
5466;DHT22;2755;50.728;7.108;2022-09-13T08:16:00;22.10;99.90
5466;DHT22;2755;50.728;7.108;2022-09-13T08:18:27;22.00;99.90
5466;DHT22;2755;50.728;7.108;2022-09-13T08:25:47;21.30;99.90
5466;DHT22;2755;50.728;7.108;2022-09-13T08:28:15;23.10;99.90
5466;DHT22;2755;50.728;7.108;2022-09-13T08:33:08;22.20;99.90
5466;DHT22;2755;50.728;7.108;2022-09-13T08:35:35;22.40;99.90
5466;DHT22;2755;50.728;7.108;2022-09-13T08:38:01;22.70;99.90
5466;DHT22;2755;50.728;7.108;2022-09-13T08:40:29;23.40;99.90
5466;DHT22;2755;50.728;7.108;2022-09-13T08:43:01;23.40;99.90
5466;DHT22;2755;50.728;7.108;2022-09-13T08:45:31;23.50;99.90
5466;DHT22;2755;50.728;7.108;2022-09-13T08:48:02;24.00;99.90
5466;DHT22;2755;50.728;7.108;2022-09-13T08:50:30;24.20;99.90
5466;DHT22;2755;50.728;7.108;2022-09-13T09:03:57;23.80;99.90
5466;DHT22;2755;50.728;7.108;2022-09-13T09:06:26;22.70;99.70
5466;DHT22;2755;50.728;7.108;2022-09-13T09:09:02;25.00;98.60
5466;DHT22;2755;50.728;7.108;2022-09-13T09:11:43;25.10;98.20
5466;DHT22;2755;50.728;7.108;2022-09-13T09:14:31;25.10;97.80
5466;DHT22;2755;50.728;7.108;2022-09-13T09:17:10;26.00;95.80
5466;DHT22;2755;50.728;7.108;2022-09-13T09:19:43;26.10;95.40
5466;DHT22;2755;50.728;7.108;2022-09-13T09:22:15;25.70;95.90
5466;DHT22;2755;50.728;7.108;2022-09-13T09:24:44;26.40;96.40
5466;DHT22;2755;50.728;7.108;2022-09-13T09:27:16;26.30;96.70
5466;DHT22;2755;50.728;7.108;2022-09-13T09:29:42;27.00;95.40
5466;DHT22;2755;50.728;7.108;2022-09-13T09:32:35;26.80;93.10
5466;DHT22;2755;50.728;7.108;2022-09-13T09:35:26;26.70;93.60
5466;DHT22;2755;50.728;7.108;2022-09-13T09:38:31;27.20;93.50
5466;DHT22;2755;50.728;7.108;2022-09-13T09:41:04;26.90;92.70
5466;DHT22;2755;50.728;7.108;2022-09-13T09:43:52;27.00;92.50
5466;DHT22;2755;50.728;7.108;2022-09-13T09:46:23;27.70;93.00
5466;DHT22;2755;50.728;7.108;2022-09-13T09:48:58;27.60;92.20
5466;DHT22;2755;50.728;7.108;2022-09-13T09:51:25;27.60;91.20
5466;DHT22;2755;50.728;7.108;2022-09-13T09:53:58;27.60;91.40
5466;DHT22;2755;50.728;7.108;2022-09-13T09:58:56;27.00;89.50
5466;DHT22;2755;50.728;7.108;2022-09-13T10:01:27;26.80;90.00
5466;DHT22;2755;50.728;7.108;2022-09-13T10:04:20;26.80;91.30
5466;DHT22;2755;50.728;7.108;2022-09-13T10:11:53;26.60;90.40
5466;DHT22;2755;50.728;7.108;2022-09-13T10:17:19;25.80;91.30
5466;DHT22;2755;50.728;7.108;2022-09-13T10:19:55;26.40;91.30
5466;DHT22;2755;50.728;7.108;2022-09-13T10:22:27;26.50;91.10
5466;DHT22;2755;50.728;7.108;2022-09-13T10:24:53;26.20;91.90
5466;DHT22;2755;50.728;7.108;2022-09-13T10:27:30;26.50;91.20
5466;DHT22;2755;50.728;7.108;2022-09-13T10:32:28;26.70;92.70
5466;DHT22;2755;50.728;7.108;2022-09-13T10:34:55;26.90;91.10
5466;DHT22;2755;50.728;7.108;2022-09-13T10:37:26;26.90;92.40
5466;DHT22;2755;50.728;7.108;2022-09-13T10:40:10;26.90;90.70
5466;DHT22;2755;50.728;7.108;2022-09-13T10:42:40;27.00;91.60
5466;DHT22;2755;50.728;7.108;2022-09-13T10:45:24;26.90;90.40
5466;DHT22;2755;50.728;7.108;2022-09-13T10:47:52;26.50;91.30
5466;DHT22;2755;50.728;7.108;2022-09-13T10:50:24;26.60;92.00
5466;DHT22;2755;50.728;7.108;2022-09-13T10:52:51;26.80;91.30
5466;DHT22;2755;50.728;7.108;2022-09-13T10:57:46;27.10;91.20
5466;DHT22;2755;50.728;7.108;2022-09-13T11:00:42;27.40;91.70
5466;DHT22;2755;50.728;7.108;2022-09-13T11:38:35;30.40;81.70
5466;DHT22;2755;50.728;7.108;2022-09-13T11:47:11;29.30;79.80
5466;DHT22;2755;50.728;7.108;2022-09-13T11:52:38;28.80;81.10
5466;DHT22;2755;50.728;7.108;2022-09-13T11:57:37;29.60;77.40
5466;DHT22;2755;50.728;7.108;2022-09-13T12:00:14;30.10;79.70
5466;DHT22;2755;50.728;7.108;2022-09-13T12:05:22;29.80;77.70
5466;DHT22;2755;50.728;7.108;2022-09-13T12:08:05;29.70;80.20
5466;DHT22;2755;50.728;7.108;2022-09-13T12:11:02;30.10;77.30
5466;DHT22;2755;50.728;7.108;2022-09-13T12:13:38;30.10;78.20
5466;DHT22;2755;50.728;7.108;2022-09-13T12:16:12;30.00;77.40
5466;DHT22;2755;50.728;7.108;2022-09-13T12:18:46;30.00;76.90
5466;DHT22;2755;50.728;7.108;2022-09-13T12:21:25;30.40;79.80
5466;DHT22;2755;50.728;7.108;2022-09-13T12:32:13;29.70;77.50
5466;DHT22;2755;50.728;7.108;2022-09-13T12:42:56;29.00;79.40
5466;DHT22;2755;50.728;7.108;2022-09-13T12:54:08;27.90;80.00
5466;DHT22;2755;50.728;7.108;2022-09-13T13:01:52;27.80;82.80
5466;DHT22;2755;50.728;7.108;2022-09-13T13:04:32;28.20;82.30
5466;DHT22;2755;50.728;7.108;2022-09-13T13:07:19;27.90;81.00
5466;DHT22;2755;50.728;7.108;2022-09-13T13:09:49;27.80;81.20
5466;DHT22;2755;50.728;7.108;2022-09-13T13:14:59;27.20;82.80
5466;DHT22;2755;50.728;7.108;2022-09-13T13:17:47;27.10;83.80
5466;DHT22;2755;50.728;7.108;2022-09-13T13:20:46;27.90;88.80
5466;DHT22;2755;50.728;7.108;2022-09-13T13:26:01;27.20;88.10
5466;DHT22;2755;50.728;7.108;2022-09-13T13:34:00;26.60;85.40
5466;DHT22;2755;50.728;7.108;2022-09-13T13:38:59;26.50;86.40
5466;DHT22;2755;50.728;7.108;2022-09-13T13:46:48;26.70;90.30
5466;DHT22;2755;50.728;7.108;2022-09-13T13:55:28;27.00;87.20
5466;DHT22;2755;50.728;7.108;2022-09-13T14:00:29;26.50;86.60
5466;DHT22;2755;50.728;7.108;2022-09-13T14:16:13;27.00;88.50
5466;DHT22;2755;50.728;7.108;2022-09-13T14:21:22;26.90;90.10
5466;DHT22;2755;50.728;7.108;2022-09-13T14:28:40;25.80;87.70
5466;DHT22;2755;50.728;7.108;2022-09-13T14:31:06;26.50;90.40
5466;DHT22;2755;50.728;7.108;2022-09-13T14:33:36;27.00;90.30
5466;DHT22;2755;50.728;7.108;2022-09-13T14:36:06;26.60;91.40
5466;DHT22;2755;50.728;7.108;2022-09-13T14:38:35;26.60;91.30
5466;DHT22;2755;50.728;7.108;2022-09-13T14:41:12;26.80;91.50
5466;DHT22;2755;50.728;7.108;2022-09-13T14:43:39;26.80;89.50
5466;DHT22;2755;50.728;7.108;2022-09-13T14:46:21;26.50;90.90
5466;DHT22;2755;50.728;7.108;2022-09-13T14:48:52;26.60;90.90
5466;DHT22;2755;50.728;7.108;2022-09-13T14:51:34;26.00;91.40
5466;DHT22;2755;50.728;7.108;2022-09-13T14:54:38;26.20;90.20
5466;DHT22;2755;50.728;7.108;2022-09-13T14:57:08;26.40;92.20
5466;DHT22;2755;50.728;7.108;2022-09-13T14:59:44;25.40;92.10
5466;DHT22;2755;50.728;7.108;2022-09-13T15:02:18;25.80;90.50
5466;DHT22;2755;50.728;7.108;2022-09-13T15:04:49;25.70;91.30
5466;DHT22;2755;50.728;7.108;2022-09-13T15:07:37;25.50;90.90
5466;DHT22;2755;50.728;7.108;2022-09-13T15:10:19;26.00;93.00
5466;DHT22;2755;50.728;7.108;2022-09-13T15:15:24;24.60;92.00
5466;DHT22;2755;50.728;7.108;2022-09-13T15:20:20;25.40;93.20
5466;DHT22;2755;50.728;7.108;2022-09-13T15:22:49;25.40;92.10
5466;DHT22;2755;50.728;7.108;2022-09-13T15:25:29;25.20;94.10
5466;DHT22;2755;50.728;7.108;2022-09-13T15:27:56;25.30;92.90
5466;DHT22;2755;50.728;7.108;2022-09-13T15:30:26;25.10;92.60
5466;DHT22;2755;50.728;7.108;2022-09-13T15:35:38;25.00;93.10
5466;DHT22;2755;50.728;7.108;2022-09-13T15:38:22;24.80;92.70
5466;DHT22;2755;50.728;7.108;2022-09-13T15:41:17;25.00;94.90
5466;DHT22;2755;50.728;7.108;2022-09-13T15:43:43;24.80;93.60
5466;DHT22;2755;50.728;7.108;2022-09-13T15:46:14;24.50;94.60
5466;DHT22;2755;50.728;7.108;2022-09-13T15:48:46;24.20;94.70
5466;DHT22;2755;50.728;7.108;2022-09-13T15:51:14;25.00;95.90
5466;DHT22;2755;50.728;7.108;2022-09-13T15:53:43;24.20;97.00
5466;DHT22;2755;50.728;7.108;2022-09-13T15:56:13;24.70;96.40
5466;DHT22;2755;50.728;7.108;2022-09-13T15:58:39;24.20;97.90
5466;DHT22;2755;50.728;7.108;2022-09-13T16:01:05;24.10;96.70
5466;DHT22;2755;50.728;7.108;2022-09-13T16:03:31;24.20;98.80
5466;DHT22;2755;50.728;7.108;2022-09-13T16:05:57;24.20;99.10
5466;DHT22;2755;50.728;7.108;2022-09-13T16:08:23;25.20;99.90
5466;DHT22;2755;50.728;7.108;2022-09-13T16:10:49;24.10;99.90
5466;DHT22;2755;50.728;7.108;2022-09-13T16:13:15;23.80;99.90
5466;DHT22;2755;50.728;7.108;2022-09-13T16:18:07;23.60;99.90
5466;DHT22;2755;50.728;7.108;2022-09-13T16:27:51;22.60;99.90
5466;DHT22;2755;50.728;7.108;2022-09-13T16:30:20;22.70;99.90
5466;DHT22;2755;50.728;7.108;2022-09-13T16:32:47;22.20;99.90
5466;DHT22;2755;50.728;7.108;2022-09-13T16:35:13;20.90;99.90
5466;DHT22;2755;50.728;7.108;2022-09-13T16:37:42;20.70;99.90
5466;DHT22;2755;50.728;7.108;2022-09-13T16:40:09;20.60;99.90
5466;DHT22;2755;50.728;7.108;2022-09-13T16:42:35;19.90;99.90
5466;DHT22;2755;50.728;7.108;2022-09-13T16:47:27;19.70;99.90
5466;DHT22;2755;50.728;7.108;2022-09-13T16:49:53;19.00;99.90
5466;DHT22;2755;50.728;7.108;2022-09-13T16:52:18;20.10;99.90
5466;DHT22;2755;50.728;7.108;2022-09-13T16:54:44;19.70;99.90
5466;DHT22;2755;50.728;7.108;2022-09-13T16:57:13;19.70;99.90
5466;DHT22;2755;50.728;7.108;2022-09-13T17:02:11;19.40;99.90
5466;DHT22;2755;50.728;7.108;2022-09-13T17:04:37;19.20;99.90
5466;DHT22;2755;50.728;7.108;2022-09-13T17:07:03;19.30;99.90
5466;DHT22;2755;50.728;7.108;2022-09-13T17:09:31;19.50;99.90
5466;DHT22;2755;50.728;7.108;2022-09-13T17:11:57;19.40;99.90
5466;DHT22;2755;50.728;7.108;2022-09-13T17:14:23;19.60;99.90
5466;DHT22;2755;50.728;7.108;2022-09-13T17:16:51;19.40;99.90
5466;DHT22;2755;50.728;7.108;2022-09-13T17:19:19;19.70;99.90
5466;DHT22;2755;50.728;7.108;2022-09-13T17:21:45;19.00;99.90
5466;DHT22;2755;50.728;7.108;2022-09-13T17:24:11;19.00;99.90
5466;DHT22;2755;50.728;7.108;2022-09-13T17:29:03;19.60;99.90
5466;DHT22;2755;50.728;7.108;2022-09-13T17:31:29;19.20;99.90
5466;DHT22;2755;50.728;7.108;2022-09-13T17:33:55;19.50;99.90
5466;DHT22;2755;50.728;7.108;2022-09-13T17:36:21;19.40;99.90
5466;DHT22;2755;50.728;7.108;2022-09-13T17:38:47;19.50;99.90
5466;DHT22;2755;50.728;7.108;2022-09-13T17:41:15;19.30;99.90
5466;DHT22;2755;50.728;7.108;2022-09-13T17:43:42;19.20;99.90
5466;DHT22;2755;50.728;7.108;2022-09-13T17:46:10;19.50;99.90
5466;DHT22;2755;50.728;7.108;2022-09-13T17:48:36;19.30;99.90
5466;DHT22;2755;50.728;7.108;2022-09-13T17:51:05;19.10;99.90
5466;DHT22;2755;50.728;7.108;2022-09-13T17:58:24;17.90;99.90
5466;DHT22;2755;50.728;7.108;2022-09-13T18:00:58;19.30;99.90
5466;DHT22;2755;50.728;7.108;2022-09-13T18:03:24;19.60;99.90
5466;DHT22;2755;50.728;7.108;2022-09-13T18:05:54;18.90;99.90
5466;DHT22;2755;50.728;7.108;2022-09-13T18:08:21;19.20;99.90
5466;DHT22;2755;50.728;7.108;2022-09-13T18:10:46;19.20;99.90
5466;DHT22;2755;50.728;7.108;2022-09-13T18:13:12;19.00;99.90
5466;DHT22;2755;50.728;7.108;2022-09-13T18:15:37;18.70;99.90
5466;DHT22;2755;50.728;7.108;2022-09-13T18:18:03;18.80;99.90
5466;DHT22;2755;50.728;7.108;2022-09-13T18:20:29;18.70;99.90
5466;DHT22;2755;50.728;7.108;2022-09-13T18:22:54;19.60;99.90
5466;DHT22;2755;50.728;7.108;2022-09-13T18:25:20;18.80;99.90
5466;DHT22;2755;50.728;7.108;2022-09-13T18:27:48;19.30;99.90
5466;DHT22;2755;50.728;7.108;2022-09-13T18:30:14;19.30;99.90
5466;DHT22;2755;50.728;7.108;2022-09-13T18:35:08;19.30;99.90
5466;DHT22;2755;50.728;7.108;2022-09-13T18:37:34;19.10;99.90
5466;DHT22;2755;50.728;7.108;2022-09-13T18:39:59;19.60;99.90
5466;DHT22;2755;50.728;7.108;2022-09-13T18:42:25;18.90;99.90
5466;DHT22;2755;50.728;7.108;2022-09-13T18:44:51;19.30;99.90
5466;DHT22;2755;50.728;7.108;2022-09-13T18:47:17;19.40;99.90
5466;DHT22;2755;50.728;7.108;2022-09-13T18:52:09;19.30;99.90
5466;DHT22;2755;50.728;7.108;2022-09-13T18:54:36;19.40;99.90
5466;DHT22;2755;50.728;7.108;2022-09-13T18:59:28;19.10;99.90
5466;DHT22;2755;50.728;7.108;2022-09-13T19:01:56;19.20;99.90
5466;DHT22;2755;50.728;7.108;2022-09-13T19:06:50;18.70;99.90
5466;DHT22;2755;50.728;7.108;2022-09-13T19:09:16;19.00;99.90
5466;DHT22;2755;50.728;7.108;2022-09-13T19:11:46;19.10;99.90
5466;DHT22;2755;50.728;7.108;2022-09-13T19:14:26;18.70;99.90
5466;DHT22;2755;50.728;7.108;2022-09-13T19:16:53;18.80;99.90
5466;DHT22;2755;50.728;7.108;2022-09-13T19:19:20;18.50;99.90
5466;DHT22;2755;50.728;7.108;2022-09-13T19:21:46;18.80;99.90
5466;DHT22;2755;50.728;7.108;2022-09-13T19:24:12;19.20;99.90
5466;DHT22;2755;50.728;7.108;2022-09-13T19:26:40;19.00;99.90
5466;DHT22;2755;50.728;7.108;2022-09-13T19:29:12;18.80;99.90
5466;DHT22;2755;50.728;7.108;2022-09-13T19:31:40;18.70;99.90
5466;DHT22;2755;50.728;7.108;2022-09-13T19:34:06;18.60;99.90
5466;DHT22;2755;50.728;7.108;2022-09-13T19:36:33;18.60;99.90
5466;DHT22;2755;50.728;7.108;2022-09-13T19:39:00;18.80;99.90
5466;DHT22;2755;50.728;7.108;2022-09-13T19:41:28;18.70;99.90
5466;DHT22;2755;50.728;7.108;2022-09-13T19:43:58;18.70;99.90
5466;DHT22;2755;50.728;7.108;2022-09-13T19:48:53;18.60;99.90
5466;DHT22;2755;50.728;7.108;2022-09-13T19:51:25;18.60;99.90
5466;DHT22;2755;50.728;7.108;2022-09-13T19:53:55;18.80;99.90
5466;DHT22;2755;50.728;7.108;2022-09-13T19:56:29;18.80;99.90
5466;DHT22;2755;50.728;7.108;2022-09-13T19:58:57;18.80;99.90
5466;DHT22;2755;50.728;7.108;2022-09-13T20:01:29;18.80;99.90
5466;DHT22;2755;50.728;7.108;2022-09-13T20:03:58;17.10;99.90
5466;DHT22;2755;50.728;7.108;2022-09-13T20:06:25;18.30;99.90
5466;DHT22;2755;50.728;7.108;2022-09-13T20:08:54;18.40;99.90
5466;DHT22;2755;50.728;7.108;2022-09-13T20:13:50;18.70;99.90
5466;DHT22;2755;50.728;7.108;2022-09-13T20:16:22;18.60;99.90
5466;DHT22;2755;50.728;7.108;2022-09-13T20:18:48;18.30;99.90
5466;DHT22;2755;50.728;7.108;2022-09-13T20:21:15;18.50;99.90
5466;DHT22;2755;50.728;7.108;2022-09-13T20:23:42;19.30;99.90
5466;DHT22;2755;50.728;7.108;2022-09-13T20:26:13;18.60;99.90
5466;DHT22;2755;50.728;7.108;2022-09-13T20:28:39;17.90;99.90
5466;DHT22;2755;50.728;7.108;2022-09-13T20:31:06;18.60;99.90
5466;DHT22;2755;50.728;7.108;2022-09-13T20:33:32;18.90;99.90
5466;DHT22;2755;50.728;7.108;2022-09-13T20:36:08;18.70;99.90
5466;DHT22;2755;50.728;7.108;2022-09-13T20:38:36;18.70;99.90
5466;DHT22;2755;50.728;7.108;2022-09-13T20:41:06;18.50;99.90
5466;DHT22;2755;50.728;7.108;2022-09-13T20:45:58;18.20;99.90
5466;DHT22;2755;50.728;7.108;2022-09-13T20:48:24;18.50;99.90
5466;DHT22;2755;50.728;7.108;2022-09-13T20:51:03;18.40;99.90
5466;DHT22;2755;50.728;7.108;2022-09-13T20:53:30;18.40;99.90
5466;DHT22;2755;50.728;7.108;2022-09-13T20:56:04;18.50;99.90
5466;DHT22;2755;50.728;7.108;2022-09-13T20:58:30;19.00;99.90
5466;DHT22;2755;50.728;7.108;2022-09-13T21:01:05;18.60;99.90
5466;DHT22;2755;50.728;7.108;2022-09-13T21:03:34;18.10;99.90
5466;DHT22;2755;50.728;7.108;2022-09-13T21:06:00;18.60;99.90
5466;DHT22;2755;50.728;7.108;2022-09-13T21:08:26;18.50;99.90
5466;DHT22;2755;50.728;7.108;2022-09-13T21:11:10;18.60;99.90
5466;DHT22;2755;50.728;7.108;2022-09-13T21:13:58;18.90;99.90
5466;DHT22;2755;50.728;7.108;2022-09-13T21:16:27;18.50;99.90
5466;DHT22;2755;50.728;7.108;2022-09-13T21:18:53;18.90;99.90
5466;DHT22;2755;50.728;7.108;2022-09-13T21:21:25;18.70;99.90
5466;DHT22;2755;50.728;7.108;2022-09-13T21:23:51;18.30;99.90
5466;DHT22;2755;50.728;7.108;2022-09-13T21:28:46;18.60;99.90
5466;DHT22;2755;50.728;7.108;2022-09-13T21:31:13;18.00;99.90